Colbrook, Connecticut
Current Conditions -  °F | °C
As of 8:53 PM on Friday 28 Nov 2014 (Local Time) from KBAF Reporting Station
Clear Clear  
Wind Chill: 16°   Ceiling: Unl
Heat Index: 24°   Visibility: 10mi
Dew Point: 13°   Wind: 7mph
Humidity: 62%   Direction: 330°NNW
Pressure: 30.2"   Gusts: NA
Location:  42.0286°N, 73.1037°W
Report Text: KBAF 290153Z 33006KT 10SM CLR M04/M11 A3020 RMK AO2 SLP233 T10441106
Loading
Personal Weather Stations






























Interactive Weather Map New forecast layout! Learn more

10-Day Weather Forecast

Advertisements
Track Severe Weather on mobile